sensor_id;sensor_type;location;lat;lon;timestamp;P1;durP1;ratioP1;P2;durP2;ratioP2
55710;SDS011;41612;51.994;5.880;2022-12-13T00:01:23;24.50;;;13.90;;
55710;SDS011;41612;51.994;5.880;2022-12-13T00:03:51;26.65;;;14.38;;
55710;SDS011;41612;51.994;5.880;2022-12-13T00:06:18;28.90;;;14.93;;
55710;SDS011;41612;51.994;5.880;2022-12-13T00:08:44;28.15;;;15.60;;
55710;SDS011;41612;51.994;5.880;2022-12-13T00:11:11;27.60;;;14.77;;
55710;SDS011;41612;51.994;5.880;2022-12-13T00:13:38;25.90;;;15.27;;
55710;SDS011;41612;51.994;5.880;2022-12-13T00:16:05;31.42;;;15.38;;
55710;SDS011;41612;51.994;5.880;2022-12-13T00:18:33;28.67;;;15.30;;
55710;SDS011;41612;51.994;5.880;2022-12-13T00:21:03;28.80;;;15.43;;
55710;SDS011;41612;51.994;5.880;2022-12-13T00:23:39;26.50;;;14.68;;
55710;SDS011;41612;51.994;5.880;2022-12-13T00:26:05;28.63;;;15.00;;
55710;SDS011;41612;51.994;5.880;2022-12-13T00:28:34;29.08;;;15.77;;
55710;SDS011;41612;51.994;5.880;2022-12-13T00:31:00;28.85;;;15.05;;
55710;SDS011;41612;51.994;5.880;2022-12-13T00:33:50;29.88;;;14.60;;
55710;SDS011;41612;51.994;5.880;2022-12-13T00:36:31;32.03;;;15.52;;
55710;SDS011;41612;51.994;5.880;2022-12-13T00:38:57;29.98;;;14.85;;
55710;SDS011;41612;51.994;5.880;2022-12-13T00:41:30;28.45;;;14.98;;
55710;SDS011;41612;51.994;5.880;2022-12-13T00:44:00;32.47;;;16.88;;
55710;SDS011;41612;51.994;5.880;2022-12-13T00:46:27;30.50;;;15.68;;
55710;SDS011;41612;51.994;5.880;2022-12-13T00:48:54;32.80;;;16.88;;
55710;SDS011;41612;51.994;5.880;2022-12-13T00:51:27;31.27;;;16.55;;
55710;SDS011;41612;51.994;5.880;2022-12-13T00:53:55;33.90;;;17.23;;
55710;SDS011;41612;51.994;5.880;2022-12-13T00:56:22;35.22;;;16.45;;
55710;SDS011;41612;51.994;5.880;2022-12-13T00:58:56;30.80;;;15.80;;
55710;SDS011;41612;51.994;5.880;2022-12-13T01:01:26;29.45;;;16.25;;
55710;SDS011;41612;51.994;5.880;2022-12-13T01:03:55;33.83;;;17.02;;
55710;SDS011;41612;51.994;5.880;2022-12-13T01:06:30;34.65;;;15.57;;
55710;SDS011;41612;51.994;5.880;2022-12-13T01:09:02;33.97;;;16.20;;
55710;SDS011;41612;51.994;5.880;2022-12-13T01:11:28;33.05;;;16.60;;
55710;SDS011;41612;51.994;5.880;2022-12-13T01:13:56;31.10;;;16.42;;
55710;SDS011;41612;51.994;5.880;2022-12-13T01:16:22;35.08;;;16.25;;
55710;SDS011;41612;51.994;5.880;2022-12-13T01:18:48;33.10;;;15.65;;
55710;SDS011;41612;51.994;5.880;2022-12-13T01:21:16;33.13;;;15.63;;
55710;SDS011;41612;51.994;5.880;2022-12-13T01:23:43;30.98;;;14.90;;
55710;SDS011;41612;51.994;5.880;2022-12-13T01:26:13;27.73;;;14.32;;
55710;SDS011;41612;51.994;5.880;2022-12-13T01:28:41;37.00;;;17.58;;
55710;SDS011;41612;51.994;5.880;2022-12-13T01:31:09;34.40;;;16.92;;
55710;SDS011;41612;51.994;5.880;2022-12-13T01:33:37;32.35;;;14.50;;
55710;SDS011;41612;51.994;5.880;2022-12-13T01:36:04;29.35;;;16.38;;
55710;SDS011;41612;51.994;5.880;2022-12-13T01:38:32;32.42;;;15.25;;
55710;SDS011;41612;51.994;5.880;2022-12-13T01:40:58;27.38;;;15.05;;
55710;SDS011;41612;51.994;5.880;2022-12-13T01:45:52;29.13;;;14.90;;
55710;SDS011;41612;51.994;5.880;2022-12-13T01:48:20;30.50;;;14.73;;
55710;SDS011;41612;51.994;5.880;2022-12-13T01:50:52;32.38;;;17.27;;
55710;SDS011;41612;51.994;5.880;2022-12-13T01:53:26;38.75;;;19.27;;
55710;SDS011;41612;51.994;5.880;2022-12-13T01:56:03;36.10;;;18.38;;
55710;SDS011;41612;51.994;5.880;2022-12-13T01:58:32;31.13;;;16.05;;
55710;SDS011;41612;51.994;5.880;2022-12-13T02:01:00;29.02;;;14.98;;
55710;SDS011;41612;51.994;5.880;2022-12-13T02:03:26;29.08;;;15.20;;
55710;SDS011;41612;51.994;5.880;2022-12-13T02:08:18;30.52;;;15.57;;
55710;SDS011;41612;51.994;5.880;2022-12-13T02:10:45;27.17;;;14.70;;
55710;SDS011;41612;51.994;5.880;2022-12-13T02:13:14;32.63;;;16.65;;
55710;SDS011;41612;51.994;5.880;2022-12-13T02:15:43;31.92;;;14.80;;
55710;SDS011;41612;51.994;5.880;2022-12-13T02:18:43;27.60;;;13.98;;
55710;SDS011;41612;51.994;5.880;2022-12-13T02:35:11;38.80;;;18.35;;
55710;SDS011;41612;51.994;5.880;2022-12-13T02:38:00;43.92;;;20.27;;
55710;SDS011;41612;51.994;5.880;2022-12-13T02:40:48;39.60;;;21.92;;
55710;SDS011;41612;51.994;5.880;2022-12-13T02:43:24;39.42;;;19.13;;
55710;SDS011;41612;51.994;5.880;2022-12-13T02:45:57;38.40;;;18.90;;
55710;SDS011;41612;51.994;5.880;2022-12-13T02:48:29;35.15;;;18.65;;
55710;SDS011;41612;51.994;5.880;2022-12-13T02:50:58;33.47;;;17.40;;
55710;SDS011;41612;51.994;5.880;2022-12-13T02:53:26;39.67;;;19.45;;
55710;SDS011;41612;51.994;5.880;2022-12-13T02:55:53;40.45;;;20.17;;
55710;SDS011;41612;51.994;5.880;2022-12-13T02:58:21;40.47;;;20.92;;
55710;SDS011;41612;51.994;5.880;2022-12-13T03:12:36;33.55;;;17.83;;
55710;SDS011;41612;51.994;5.880;2022-12-13T03:15:38;36.08;;;17.33;;
55710;SDS011;41612;51.994;5.880;2022-12-13T03:18:18;39.67;;;19.73;;
55710;SDS011;41612;51.994;5.880;2022-12-13T03:20:46;40.80;;;20.20;;
55710;SDS011;41612;51.994;5.880;2022-12-13T03:23:23;41.83;;;20.27;;
55710;SDS011;41612;51.994;5.880;2022-12-13T03:25:51;35.28;;;17.02;;
55710;SDS011;41612;51.994;5.880;2022-12-13T03:28:24;37.22;;;18.42;;
55710;SDS011;41612;51.994;5.880;2022-12-13T03:30:52;42.30;;;19.77;;
55710;SDS011;41612;51.994;5.880;2022-12-13T03:33:18;38.92;;;18.85;;
55710;SDS011;41612;51.994;5.880;2022-12-13T03:35:44;42.22;;;19.00;;
55710;SDS011;41612;51.994;5.880;2022-12-13T03:38:11;38.00;;;20.38;;
55710;SDS011;41612;51.994;5.880;2022-12-13T03:40:38;37.15;;;18.85;;
55710;SDS011;41612;51.994;5.880;2022-12-13T03:43:04;39.63;;;19.50;;
55710;SDS011;41612;51.994;5.880;2022-12-13T03:45:30;31.08;;;16.08;;
55710;SDS011;41612;51.994;5.880;2022-12-13T03:47:56;31.70;;;17.40;;
55710;SDS011;41612;51.994;5.880;2022-12-13T03:50:22;39.80;;;20.13;;
55710;SDS011;41612;51.994;5.880;2022-12-13T03:52:47;32.25;;;16.90;;
55710;SDS011;41612;51.994;5.880;2022-12-13T03:55:16;30.25;;;15.38;;
55710;SDS011;41612;51.994;5.880;2022-12-13T03:57:42;30.55;;;13.73;;
55710;SDS011;41612;51.994;5.880;2022-12-13T04:00:11;27.75;;;15.07;;
55710;SDS011;41612;51.994;5.880;2022-12-13T04:02:38;38.90;;;18.70;;
55710;SDS011;41612;51.994;5.880;2022-12-13T04:05:07;35.22;;;18.75;;
55710;SDS011;41612;51.994;5.880;2022-12-13T04:07:33;43.15;;;20.33;;
55710;SDS011;41612;51.994;5.880;2022-12-13T04:09:59;46.00;;;23.33;;
55710;SDS011;41612;51.994;5.880;2022-12-13T04:12:25;44.65;;;22.33;;
55710;SDS011;41612;51.994;5.880;2022-12-13T04:15:09;47.95;;;21.60;;
55710;SDS011;41612;51.994;5.880;2022-12-13T04:17:35;44.85;;;22.40;;
55710;SDS011;41612;51.994;5.880;2022-12-13T04:20:03;44.47;;;21.98;;
55710;SDS011;41612;51.994;5.880;2022-12-13T04:22:29;53.65;;;24.65;;
55710;SDS011;41612;51.994;5.880;2022-12-13T04:24:55;48.67;;;23.88;;
55710;SDS011;41612;51.994;5.880;2022-12-13T04:27:21;41.92;;;21.02;;
55710;SDS011;41612;51.994;5.880;2022-12-13T04:29:47;50.83;;;22.60;;
55710;SDS011;41612;51.994;5.880;2022-12-13T04:32:12;35.83;;;18.98;;
55710;SDS011;41612;51.994;5.880;2022-12-13T04:34:38;42.90;;;20.13;;
55710;SDS011;41612;51.994;5.880;2022-12-13T04:37:04;41.97;;;21.42;;
55710;SDS011;41612;51.994;5.880;2022-12-13T04:39:30;43.25;;;19.75;;
55710;SDS011;41612;51.994;5.880;2022-12-13T04:41:56;49.72;;;24.92;;
55710;SDS011;41612;51.994;5.880;2022-12-13T04:44:22;51.53;;;22.45;;
55710;SDS011;41612;51.994;5.880;2022-12-13T04:46:47;40.78;;;20.02;;
55710;SDS011;41612;51.994;5.880;2022-12-13T04:49:13;48.92;;;24.05;;
55710;SDS011;41612;51.994;5.880;2022-12-13T04:51:39;51.80;;;21.20;;
55710;SDS011;41612;51.994;5.880;2022-12-13T04:54:05;40.60;;;20.23;;
55710;SDS011;41612;51.994;5.880;2022-12-13T04:56:34;39.85;;;20.08;;
55710;SDS011;41612;51.994;5.880;2022-12-13T04:58:59;34.85;;;18.00;;
55710;SDS011;41612;51.994;5.880;2022-12-13T05:01:25;39.67;;;18.67;;
55710;SDS011;41612;51.994;5.880;2022-12-13T05:03:51;37.85;;;19.10;;
55710;SDS011;41612;51.994;5.880;2022-12-13T05:06:17;41.15;;;19.70;;
55710;SDS011;41612;51.994;5.880;2022-12-13T05:08:43;52.08;;;21.17;;
55710;SDS011;41612;51.994;5.880;2022-12-13T05:11:11;43.03;;;22.02;;
55710;SDS011;41612;51.994;5.880;2022-12-13T05:13:37;45.92;;;21.58;;
55710;SDS011;41612;51.994;5.880;2022-12-13T05:16:04;42.55;;;22.15;;
55710;SDS011;41612;51.994;5.880;2022-12-13T05:18:32;49.15;;;24.05;;
55710;SDS011;41612;51.994;5.880;2022-12-13T05:21:03;43.45;;;20.80;;
55710;SDS011;41612;51.994;5.880;2022-12-13T05:23:34;48.38;;;23.42;;
55710;SDS011;41612;51.994;5.880;2022-12-13T05:26:03;40.65;;;20.23;;
55710;SDS011;41612;51.994;5.880;2022-12-13T05:28:29;41.00;;;19.92;;
55710;SDS011;41612;51.994;5.880;2022-12-13T05:30:56;48.33;;;23.02;;
55710;SDS011;41612;51.994;5.880;2022-12-13T05:33:33;51.50;;;21.33;;
55710;SDS011;41612;51.994;5.880;2022-12-13T05:35:59;40.90;;;21.58;;
55710;SDS011;41612;51.994;5.880;2022-12-13T05:38:27;55.90;;;25.85;;
55710;SDS011;41612;51.994;5.880;2022-12-13T05:40:54;43.00;;;21.95;;
55710;SDS011;41612;51.994;5.880;2022-12-13T05:43:20;45.05;;;23.63;;
55710;SDS011;41612;51.994;5.880;2022-12-13T05:45:46;46.97;;;22.52;;
55710;SDS011;41612;51.994;5.880;2022-12-13T05:48:11;46.45;;;25.05;;
55710;SDS011;41612;51.994;5.880;2022-12-13T05:50:37;45.08;;;22.17;;
55710;SDS011;41612;51.994;5.880;2022-12-13T05:53:06;53.03;;;25.73;;
55710;SDS011;41612;51.994;5.880;2022-12-13T05:55:32;49.17;;;24.35;;
55710;SDS011;41612;51.994;5.880;2022-12-13T05:57:58;44.85;;;23.17;;
55710;SDS011;41612;51.994;5.880;2022-12-13T06:00:24;41.38;;;20.40;;
55710;SDS011;41612;51.994;5.880;2022-12-13T06:02:50;44.42;;;23.27;;
55710;SDS011;41612;51.994;5.880;2022-12-13T06:05:16;52.95;;;23.75;;
55710;SDS011;41612;51.994;5.880;2022-12-13T06:07:42;52.15;;;23.55;;
55710;SDS011;41612;51.994;5.880;2022-12-13T06:10:08;46.22;;;22.88;;
55710;SDS011;41612;51.994;5.880;2022-12-13T06:12:34;55.33;;;23.80;;
55710;SDS011;41612;51.994;5.880;2022-12-13T06:15:06;43.60;;;22.00;;
55710;SDS011;41612;51.994;5.880;2022-12-13T06:17:35;48.50;;;22.85;;
55710;SDS011;41612;51.994;5.880;2022-12-13T06:20:02;44.50;;;23.27;;
55710;SDS011;41612;51.994;5.880;2022-12-13T06:22:31;50.72;;;24.38;;
55710;SDS011;41612;51.994;5.880;2022-12-13T06:24:59;41.67;;;21.13;;
55710;SDS011;41612;51.994;5.880;2022-12-13T06:27:26;47.70;;;20.67;;
55710;SDS011;41612;51.994;5.880;2022-12-13T06:29:57;49.20;;;22.15;;
55710;SDS011;41612;51.994;5.880;2022-12-13T06:32:23;47.75;;;23.08;;
55710;SDS011;41612;51.994;5.880;2022-12-13T06:34:49;57.70;;;23.67;;
55710;SDS011;41612;51.994;5.880;2022-12-13T06:37:22;51.17;;;25.20;;
55710;SDS011;41612;51.994;5.880;2022-12-13T06:39:48;48.80;;;25.98;;
55710;SDS011;41612;51.994;5.880;2022-12-13T06:42:15;60.50;;;25.77;;
55710;SDS011;41612;51.994;5.880;2022-12-13T06:44:45;55.38;;;25.17;;
55710;SDS011;41612;51.994;5.880;2022-12-13T06:47:11;44.97;;;23.10;;
55710;SDS011;41612;51.994;5.880;2022-12-13T06:49:37;54.67;;;27.02;;
55710;SDS011;41612;51.994;5.880;2022-12-13T06:52:03;49.50;;;23.88;;
55710;SDS011;41612;51.994;5.880;2022-12-13T06:54:29;48.08;;;21.05;;
55710;SDS011;41612;51.994;5.880;2022-12-13T06:56:57;39.10;;;19.10;;
55710;SDS011;41612;51.994;5.880;2022-12-13T06:59:24;44.13;;;22.38;;
55710;SDS011;41612;51.994;5.880;2022-12-13T07:01:52;45.53;;;21.27;;
55710;SDS011;41612;51.994;5.880;2022-12-13T07:04:18;46.38;;;21.45;;
55710;SDS011;41612;51.994;5.880;2022-12-13T07:06:49;43.35;;;21.50;;
55710;SDS011;41612;51.994;5.880;2022-12-13T07:09:18;44.97;;;21.73;;
55710;SDS011;41612;51.994;5.880;2022-12-13T07:11:49;46.80;;;23.02;;
55710;SDS011;41612;51.994;5.880;2022-12-13T07:14:35;58.35;;;28.80;;
55710;SDS011;41612;51.994;5.880;2022-12-13T07:17:01;57.47;;;26.52;;
55710;SDS011;41612;51.994;5.880;2022-12-13T07:19:57;58.63;;;26.42;;
55710;SDS011;41612;51.994;5.880;2022-12-13T07:22:26;58.17;;;26.73;;
55710;SDS011;41612;51.994;5.880;2022-12-13T07:24:52;57.40;;;27.95;;
55710;SDS011;41612;51.994;5.880;2022-12-13T07:27:20;57.05;;;27.92;;
55710;SDS011;41612;51.994;5.880;2022-12-13T07:29:46;64.53;;;28.58;;
55710;SDS011;41612;51.994;5.880;2022-12-13T07:32:12;59.22;;;28.80;;
55710;SDS011;41612;51.994;5.880;2022-12-13T07:34:41;51.13;;;26.92;;
55710;SDS011;41612;51.994;5.880;2022-12-13T07:37:07;53.75;;;27.08;;
55710;SDS011;41612;51.994;5.880;2022-12-13T07:39:33;56.50;;;25.92;;
55710;SDS011;41612;51.994;5.880;2022-12-13T07:41:59;62.17;;;27.52;;
55710;SDS011;41612;51.994;5.880;2022-12-13T07:44:28;51.15;;;22.38;;
55710;SDS011;41612;51.994;5.880;2022-12-13T07:46:54;50.97;;;23.83;;
55710;SDS011;41612;51.994;5.880;2022-12-13T07:49:20;55.08;;;25.05;;
55710;SDS011;41612;51.994;5.880;2022-12-13T07:51:49;56.90;;;27.08;;
55710;SDS011;41612;51.994;5.880;2022-12-13T07:54:21;59.85;;;27.90;;
55710;SDS011;41612;51.994;5.880;2022-12-13T07:56:51;56.40;;;27.60;;
55710;SDS011;41612;51.994;5.880;2022-12-13T07:59:25;61.42;;;28.92;;
55710;SDS011;41612;51.994;5.880;2022-12-13T08:01:56;57.10;;;28.58;;
55710;SDS011;41612;51.994;5.880;2022-12-13T08:04:45;45.35;;;22.20;;
55710;SDS011;41612;51.994;5.880;2022-12-13T08:07:13;52.42;;;23.95;;
55710;SDS011;41612;51.994;5.880;2022-12-13T08:09:44;51.90;;;27.08;;
55710;SDS011;41612;51.994;5.880;2022-12-13T08:12:10;56.60;;;26.30;;
55710;SDS011;41612;51.994;5.880;2022-12-13T08:14:38;56.10;;;25.48;;
55710;SDS011;41612;51.994;5.880;2022-12-13T08:17:06;53.13;;;25.35;;
55710;SDS011;41612;51.994;5.880;2022-12-13T08:19:35;60.92;;;26.90;;
55710;SDS011;41612;51.994;5.880;2022-12-13T08:22:04;56.20;;;26.35;;
55710;SDS011;41612;51.994;5.880;2022-12-13T08:24:33;54.72;;;26.42;;
55710;SDS011;41612;51.994;5.880;2022-12-13T08:27:01;52.45;;;25.52;;
55710;SDS011;41612;51.994;5.880;2022-12-13T08:29:28;63.38;;;29.08;;
55710;SDS011;41612;51.994;5.880;2022-12-13T08:32:01;50.72;;;26.58;;
55710;SDS011;41612;51.994;5.880;2022-12-13T08:34:37;55.80;;;26.27;;
55710;SDS011;41612;51.994;5.880;2022-12-13T08:37:10;62.50;;;29.92;;
55710;SDS011;41612;51.994;5.880;2022-12-13T08:39:42;57.53;;;27.48;;
55710;SDS011;41612;51.994;5.880;2022-12-13T08:42:12;64.00;;;29.65;;
55710;SDS011;41612;51.994;5.880;2022-12-13T08:44:42;62.55;;;29.40;;
55710;SDS011;41612;51.994;5.880;2022-12-13T08:47:12;50.65;;;26.42;;
55710;SDS011;41612;51.994;5.880;2022-12-13T08:49:39;51.85;;;25.95;;
55710;SDS011;41612;51.994;5.880;2022-12-13T08:52:05;45.13;;;23.17;;
55710;SDS011;41612;51.994;5.880;2022-12-13T08:54:34;45.50;;;22.42;;
55710;SDS011;41612;51.994;5.880;2022-12-13T08:57:00;46.10;;;23.13;;
55710;SDS011;41612;51.994;5.880;2022-12-13T08:59:26;49.90;;;25.05;;
55710;SDS011;41612;51.994;5.880;2022-12-13T09:01:52;46.72;;;23.02;;
55710;SDS011;41612;51.994;5.880;2022-12-13T09:04:18;51.45;;;24.77;;
55710;SDS011;41612;51.994;5.880;2022-12-13T09:06:49;57.53;;;28.13;;
55710;SDS011;41612;51.994;5.880;2022-12-13T09:09:15;52.35;;;23.23;;
55710;SDS011;41612;51.994;5.880;2022-12-13T09:11:41;66.82;;;30.23;;
55710;SDS011;41612;51.994;5.880;2022-12-13T09:14:15;67.45;;;32.47;;
55710;SDS011;41612;51.994;5.880;2022-12-13T09:16:44;62.58;;;30.10;;
55710;SDS011;41612;51.994;5.880;2022-12-13T09:19:15;60.05;;;31.73;;
55710;SDS011;41612;51.994;5.880;2022-12-13T09:21:44;62.67;;;30.77;;
55710;SDS011;41612;51.994;5.880;2022-12-13T09:24:12;71.18;;;33.35;;
55710;SDS011;41612;51.994;5.880;2022-12-13T09:26:41;63.42;;;29.65;;
55710;SDS011;41612;51.994;5.880;2022-12-13T09:29:15;53.78;;;27.33;;
55710;SDS011;41612;51.994;5.880;2022-12-13T09:31:41;63.53;;;31.20;;
55710;SDS011;41612;51.994;5.880;2022-12-13T09:34:09;59.90;;;28.42;;
55710;SDS011;41612;51.994;5.880;2022-12-13T09:36:38;60.40;;;29.58;;
55710;SDS011;41612;51.994;5.880;2022-12-13T09:39:06;55.80;;;28.85;;
55710;SDS011;41612;51.994;5.880;2022-12-13T09:41:48;60.70;;;29.90;;
55710;SDS011;41612;51.994;5.880;2022-12-13T09:44:20;60.83;;;30.77;;
55710;SDS011;41612;51.994;5.880;2022-12-13T09:46:53;49.13;;;26.45;;
55710;SDS011;41612;51.994;5.880;2022-12-13T09:49:28;50.25;;;27.20;;
55710;SDS011;41612;51.994;5.880;2022-12-13T09:52:06;53.08;;;27.88;;
55710;SDS011;41612;51.994;5.880;2022-12-13T09:54:39;47.72;;;24.40;;
55710;SDS011;41612;51.994;5.880;2022-12-13T09:57:13;49.33;;;26.25;;
55710;SDS011;41612;51.994;5.880;2022-12-13T09:59:50;49.85;;;25.15;;
55710;SDS011;41612;51.994;5.880;2022-12-13T10:03:02;46.60;;;26.42;;
55710;SDS011;41612;51.994;5.880;2022-12-13T10:05:18;47.65;;;24.40;;
55710;SDS011;41612;51.994;5.880;2022-12-13T10:07:54;51.15;;;26.48;;
55710;SDS011;41612;51.994;5.880;2022-12-13T10:10:26;48.88;;;25.42;;
55710;SDS011;41612;51.994;5.880;2022-12-13T10:12:57;46.33;;;23.63;;
55710;SDS011;41612;51.994;5.880;2022-12-13T10:15:43;46.20;;;25.75;;
55710;SDS011;41612;51.994;5.880;2022-12-13T10:18:30;43.78;;;23.00;;
55710;SDS011;41612;51.994;5.880;2022-12-13T10:21:24;47.50;;;23.58;;
55710;SDS011;41612;51.994;5.880;2022-12-13T10:24:24;45.05;;;23.40;;
55710;SDS011;41612;51.994;5.880;2022-12-13T10:26:58;45.20;;;23.73;;
55710;SDS011;41612;51.994;5.880;2022-12-13T10:32:26;42.58;;;21.50;;
55710;SDS011;41612;51.994;5.880;2022-12-13T10:34:55;42.72;;;22.65;;
55710;SDS011;41612;51.994;5.880;2022-12-13T10:37:28;41.25;;;23.20;;
55710;SDS011;41612;51.994;5.880;2022-12-13T10:39:57;44.78;;;23.75;;
55710;SDS011;41612;51.994;5.880;2022-12-13T10:42:29;42.40;;;24.25;;
55710;SDS011;41612;51.994;5.880;2022-12-13T10:45:12;48.65;;;24.45;;
55710;SDS011;41612;51.994;5.880;2022-12-13T10:47:47;49.47;;;24.15;;
55710;SDS011;41612;51.994;5.880;2022-12-13T10:50:24;51.00;;;26.05;;
55710;SDS011;41612;51.994;5.880;2022-12-13T10:52:52;48.95;;;24.77;;
55710;SDS011;41612;51.994;5.880;2022-12-13T10:55:24;45.45;;;24.83;;
55710;SDS011;41612;51.994;5.880;2022-12-13T10:57:54;41.85;;;21.42;;
55710;SDS011;41612;51.994;5.880;2022-12-13T11:00:42;44.17;;;24.42;;
55710;SDS011;41612;51.994;5.880;2022-12-13T11:03:26;44.63;;;23.33;;
55710;SDS011;41612;51.994;5.880;2022-12-13T11:06:02;45.25;;;21.58;;
55710;SDS011;41612;51.994;5.880;2022-12-13T11:08:32;46.22;;;23.83;;
55710;SDS011;41612;51.994;5.880;2022-12-13T11:10:59;43.25;;;22.23;;
55710;SDS011;41612;51.994;5.880;2022-12-13T11:13:43;39.67;;;21.52;;
55710;SDS011;41612;51.994;5.880;2022-12-13T11:16:30;46.33;;;22.98;;
55710;SDS011;41612;51.994;5.880;2022-12-13T11:19:02;44.58;;;22.20;;
55710;SDS011;41612;51.994;5.880;2022-12-13T11:21:37;40.28;;;20.90;;
55710;SDS011;41612;51.994;5.880;2022-12-13T11:24:13;41.17;;;22.00;;
55710;SDS011;41612;51.994;5.880;2022-12-13T11:30:11;42.00;;;23.10;;
55710;SDS011;41612;51.994;5.880;2022-12-13T11:35:51;40.35;;;19.75;;
55710;SDS011;41612;51.994;5.880;2022-12-13T11:38:25;42.88;;;22.33;;
55710;SDS011;41612;51.994;5.880;2022-12-13T11:41:00;37.67;;;18.52;;
55710;SDS011;41612;51.994;5.880;2022-12-13T11:44:00;42.50;;;22.25;;
55710;SDS011;41612;51.994;5.880;2022-12-13T11:46:42;42.05;;;21.45;;
55710;SDS011;41612;51.994;5.880;2022-12-13T11:49:29;35.78;;;20.55;;
55710;SDS011;41612;51.994;5.880;2022-12-13T11:52:33;39.15;;;21.23;;
55710;SDS011;41612;51.994;5.880;2022-12-13T11:55:36;43.10;;;21.77;;
55710;SDS011;41612;51.994;5.880;2022-12-13T11:58:06;35.35;;;20.55;;
55710;SDS011;41612;51.994;5.880;2022-12-13T12:01:16;39.45;;;23.05;;
55710;SDS011;41612;51.994;5.880;2022-12-13T12:09:43;37.70;;;21.58;;
55710;SDS011;41612;51.994;5.880;2022-12-13T12:12:34;38.57;;;20.33;;
55710;SDS011;41612;51.994;5.880;2022-12-13T12:15:40;37.47;;;19.55;;
55710;SDS011;41612;51.994;5.880;2022-12-13T12:18:18;32.33;;;18.17;;
55710;SDS011;41612;51.994;5.880;2022-12-13T12:20:59;36.58;;;20.02;;
55710;SDS011;41612;51.994;5.880;2022-12-13T12:30:02;40.13;;;18.95;;
55710;SDS011;41612;51.994;5.880;2022-12-13T12:32:49;36.95;;;19.73;;
55710;SDS011;41612;51.994;5.880;2022-12-13T12:44:14;35.15;;;19.23;;
55710;SDS011;41612;51.994;5.880;2022-12-13T12:49:53;28.02;;;16.42;;
55710;SDS011;41612;51.994;5.880;2022-12-13T12:55:15;53.95;;;31.42;;
55710;SDS011;41612;51.994;5.880;2022-12-13T12:58:03;41.60;;;24.27;;
55710;SDS011;41612;51.994;5.880;2022-12-13T13:03:20;33.83;;;18.08;;
55710;SDS011;41612;51.994;5.880;2022-12-13T13:05:50;34.53;;;19.77;;
55710;SDS011;41612;51.994;5.880;2022-12-13T13:08:24;35.33;;;18.73;;
55710;SDS011;41612;51.994;5.880;2022-12-13T13:11:01;33.75;;;20.83;;
55710;SDS011;41612;51.994;5.880;2022-12-13T13:13:51;62.92;;;31.42;;
55710;SDS011;41612;51.994;5.880;2022-12-13T13:16:53;44.13;;;24.55;;
55710;SDS011;41612;51.994;5.880;2022-12-13T13:22:13;39.75;;;21.67;;
55710;SDS011;41612;51.994;5.880;2022-12-13T13:27:31;50.55;;;29.58;;
55710;SDS011;41612;51.994;5.880;2022-12-13T13:30:16;63.60;;;36.83;;
55710;SDS011;41612;51.994;5.880;2022-12-13T13:32:47;65.38;;;37.33;;
55710;SDS011;41612;51.994;5.880;2022-12-13T13:37:53;39.40;;;23.55;;
55710;SDS011;41612;51.994;5.880;2022-12-13T13:40:51;37.67;;;21.05;;
55710;SDS011;41612;51.994;5.880;2022-12-13T13:43:40;35.15;;;19.27;;
55710;SDS011;41612;51.994;5.880;2022-12-13T13:46:18;36.17;;;19.88;;
55710;SDS011;41612;51.994;5.880;2022-12-13T13:49:00;46.17;;;22.17;;
55710;SDS011;41612;51.994;5.880;2022-12-13T14:03:52;44.90;;;23.95;;
55710;SDS011;41612;51.994;5.880;2022-12-13T14:10:12;43.70;;;21.17;;
55710;SDS011;41612;51.994;5.880;2022-12-13T14:22:37;33.10;;;18.27;;
55710;SDS011;41612;51.994;5.880;2022-12-13T14:31:21;35.20;;;19.17;;
55710;SDS011;41612;51.994;5.880;2022-12-13T14:33:58;38.63;;;20.60;;
55710;SDS011;41612;51.994;5.880;2022-12-13T14:36:36;34.05;;;18.55;;
55710;SDS011;41612;51.994;5.880;2022-12-13T14:39:14;33.13;;;17.63;;
55710;SDS011;41612;51.994;5.880;2022-12-13T14:48:04;36.25;;;18.73;;
55710;SDS011;41612;51.994;5.880;2022-12-13T14:50:46;33.65;;;17.83;;
55710;SDS011;41612;51.994;5.880;2022-12-13T14:53:33;39.35;;;20.42;;
55710;SDS011;41612;51.994;5.880;2022-12-13T14:56:11;40.10;;;20.65;;
55710;SDS011;41612;51.994;5.880;2022-12-13T14:59:00;40.25;;;20.45;;
55710;SDS011;41612;51.994;5.880;2022-12-13T15:01:41;38.60;;;19.75;;
55710;SDS011;41612;51.994;5.880;2022-12-13T15:04:27;37.55;;;19.77;;
55710;SDS011;41612;51.994;5.880;2022-12-13T15:07:03;46.33;;;21.25;;
55710;SDS011;41612;51.994;5.880;2022-12-13T15:09:41;47.85;;;23.27;;
55710;SDS011;41612;51.994;5.880;2022-12-13T15:12:29;35.88;;;18.60;;
55710;SDS011;41612;51.994;5.880;2022-12-13T15:15:28;43.25;;;19.83;;
55710;SDS011;41612;51.994;5.880;2022-12-13T15:20:58;32.78;;;17.17;;
55710;SDS011;41612;51.994;5.880;2022-12-13T15:26:14;32.75;;;18.45;;
55710;SDS011;41612;51.994;5.880;2022-12-13T15:28:49;35.60;;;17.30;;
55710;SDS011;41612;51.994;5.880;2022-12-13T15:31:24;29.80;;;16.73;;
55710;SDS011;41612;51.994;5.880;2022-12-13T15:34:12;33.78;;;17.67;;
55710;SDS011;41612;51.994;5.880;2022-12-13T15:37:45;37.90;;;17.00;;
55710;SDS011;41612;51.994;5.880;2022-12-13T15:40:04;34.97;;;17.77;;
55710;SDS011;41612;51.994;5.880;2022-12-13T15:42:35;32.00;;;17.13;;
55710;SDS011;41612;51.994;5.880;2022-12-13T15:45:18;36.10;;;19.58;;
55710;SDS011;41612;51.994;5.880;2022-12-13T15:47:58;32.83;;;18.00;;
55710;SDS011;41612;51.994;5.880;2022-12-13T15:50:34;43.67;;;22.15;;
55710;SDS011;41612;51.994;5.880;2022-12-13T15:55:54;40.40;;;20.77;;
55710;SDS011;41612;51.994;5.880;2022-12-13T15:58:24;35.30;;;18.83;;
55710;SDS011;41612;51.994;5.880;2022-12-13T16:00:55;44.60;;;22.02;;
55710;SDS011;41612;51.994;5.880;2022-12-13T16:03:24;44.78;;;22.38;;
55710;SDS011;41612;51.994;5.880;2022-12-13T16:06:01;50.38;;;25.13;;
55710;SDS011;41612;51.994;5.880;2022-12-13T16:08:42;44.13;;;23.25;;
55710;SDS011;41612;51.994;5.880;2022-12-13T16:11:23;43.25;;;23.35;;
55710;SDS011;41612;51.994;5.880;2022-12-13T16:14:21;48.55;;;24.98;;
55710;SDS011;41612;51.994;5.880;2022-12-13T16:17:26;47.05;;;23.15;;
55710;SDS011;41612;51.994;5.880;2022-12-13T16:19:56;44.33;;;23.90;;
55710;SDS011;41612;51.994;5.880;2022-12-13T16:22:24;47.58;;;23.73;;
55710;SDS011;41612;51.994;5.880;2022-12-13T16:24:53;46.55;;;22.48;;
55710;SDS011;41612;51.994;5.880;2022-12-13T16:27:20;42.17;;;20.20;;
55710;SDS011;41612;51.994;5.880;2022-12-13T16:29:46;38.70;;;20.00;;
55710;SDS011;41612;51.994;5.880;2022-12-13T16:32:14;40.72;;;21.75;;
55710;SDS011;41612;51.994;5.880;2022-12-13T16:34:49;33.25;;;18.77;;
55710;SDS011;41612;51.994;5.880;2022-12-13T16:37:17;38.45;;;20.27;;
55710;SDS011;41612;51.994;5.880;2022-12-13T16:39:54;35.40;;;19.20;;
55710;SDS011;41612;51.994;5.880;2022-12-13T16:42:26;37.90;;;22.00;;
55710;SDS011;41612;51.994;5.880;2022-12-13T16:44:58;44.72;;;24.25;;
55710;SDS011;41612;51.994;5.880;2022-12-13T16:47:27;41.35;;;20.35;;
55710;SDS011;41612;51.994;5.880;2022-12-13T16:50:01;43.55;;;22.40;;
55710;SDS011;41612;51.994;5.880;2022-12-13T16:52:37;33.00;;;18.73;;
55710;SDS011;41612;51.994;5.880;2022-12-13T16:55:04;40.30;;;21.52;;
55710;SDS011;41612;51.994;5.880;2022-12-13T16:57:34;50.30;;;23.92;;